createdAt,value
2022-08-08T00:00:55.397Z,4.90
2022-08-08T00:03:31.559Z,3.87
2022-08-08T00:06:28.574Z,4.15
2022-08-08T00:09:07.520Z,4.42
2022-08-08T00:12:07.561Z,4.35
2022-08-08T00:15:03.327Z,4.10
2022-08-08T00:17:58.541Z,4.10
2022-08-08T00:20:31.409Z,4.62
2022-08-08T00:23:15.983Z,5.05
2022-08-08T00:25:54.220Z,4.00
2022-08-08T00:28:36.822Z,3.65
2022-08-08T00:32:15.640Z,3.83
2022-08-08T00:34:53.695Z,4.28
2022-08-08T00:38:06.800Z,4.17
2022-08-08T00:41:07.300Z,4.42
2022-08-08T00:44:04.127Z,4.47
2022-08-08T00:47:23.572Z,4.15
2022-08-08T00:50:48.199Z,4.10
2022-08-08T00:53:29.460Z,4.30
2022-08-08T00:56:16.592Z,4.53
2022-08-08T00:59:43.661Z,4.83
2022-08-08T01:03:59.666Z,4.47
2022-08-08T01:05:58.292Z,4.53
2022-08-08T01:08:51.894Z,4.05
2022-08-08T01:11:59.329Z,4.15
2022-08-08T01:14:57.333Z,3.90
2022-08-08T01:17:56.990Z,3.72
2022-08-08T01:21:07.665Z,4.25
2022-08-08T01:24:13.812Z,3.47
2022-08-08T01:27:16.266Z,3.83
2022-08-08T01:30:06.043Z,4.10
2022-08-08T01:33:27.984Z,4.00
2022-08-08T01:36:23.015Z,3.52
2022-08-08T01:39:07.763Z,3.40
2022-08-08T01:42:08.198Z,3.65
2022-08-08T01:45:37.718Z,3.72
2022-08-08T01:48:48.135Z,3.35
2022-08-08T01:52:41.743Z,3.55
2022-08-08T01:55:45.038Z,3.10
2022-08-08T01:58:12.483Z,3.27
2022-08-08T02:00:49.376Z,2.95
2022-08-08T02:04:09.445Z,3.70
2022-08-08T02:06:59.004Z,3.12
2022-08-08T02:10:12.010Z,3.65
2022-08-08T02:13:01.215Z,3.20
2022-08-08T02:16:21.105Z,3.58
2022-08-08T02:19:26.865Z,3.27
2022-08-08T02:22:18.328Z,3.55
2022-08-08T02:25:20.976Z,3.47
2022-08-08T02:28:05.161Z,3.60
2022-08-08T02:31:43.303Z,3.33
2022-08-08T02:34:15.008Z,4.53
2022-08-08T02:37:04.036Z,4.15
2022-08-08T02:40:02.770Z,5.87
2022-08-08T02:44:36.884Z,5.35
2022-08-08T02:46:17.920Z,5.12
2022-08-08T02:49:48.328Z,5.03
2022-08-08T02:52:38.920Z,4.90
2022-08-08T02:55:37.362Z,5.62
2022-08-08T02:59:05.740Z,6.40
2022-08-08T03:02:06.252Z,6.10
2022-08-08T03:05:21.166Z,12.95
2022-08-08T03:08:52.160Z,10.13
2022-08-08T03:12:01.576Z,9.58
2022-08-08T03:15:56.484Z,8.38
2022-08-08T03:17:39.315Z,6.90
2022-08-08T03:20:15.043Z,6.35
2022-08-08T03:22:56.776Z,6.45
2022-08-08T03:25:36.105Z,6.05
2022-08-08T03:28:22.681Z,5.87
2022-08-08T03:31:22.141Z,4.90
2022-08-08T03:33:55.467Z,7.22
2022-08-08T03:36:10.393Z,5.97
2022-08-08T03:38:56.111Z,5.35
2022-08-08T03:42:04.147Z,5.00
2022-08-08T03:43:59.634Z,4.83
2022-08-08T03:46:33.369Z,5.40
2022-08-08T03:49:56.216Z,5.30
2022-08-08T03:51:51.436Z,4.92
2022-08-08T03:54:40.659Z,6.12
2022-08-08T03:59:32.959Z,5.15
2022-08-08T04:02:32.820Z,4.95
2022-08-08T04:04:54.673Z,5.62
2022-08-08T04:07:28.617Z,4.90
2022-08-08T04:12:37.464Z,5.03
2022-08-08T04:15:12.640Z,5.05
2022-08-08T04:17:58.936Z,6.12
2022-08-08T04:20:28.569Z,5.80
2022-08-08T04:22:58.319Z,5.47
2022-08-08T04:25:32.895Z,5.60
2022-08-08T04:28:36.602Z,5.15
2022-08-08T04:30:44.433Z,5.97
2022-08-08T04:33:15.989Z,5.30
2022-08-08T04:35:51.295Z,6.25
2022-08-08T04:43:45.319Z,5.37
2022-08-08T04:46:07.085Z,6.03
2022-08-08T04:48:41.273Z,5.70
2022-08-08T04:54:36.274Z,8.25
2022-08-08T04:56:23.977Z,6.60
2022-08-08T04:58:56.462Z,5.72
2022-08-08T05:01:35.722Z,5.28
2022-08-08T05:04:10.002Z,5.10
2022-08-08T05:06:40.135Z,4.90
2022-08-08T05:09:15.692Z,4.50
2022-08-08T05:11:57.296Z,5.55
2022-08-08T05:14:25.065Z,4.58
2022-08-08T05:17:00.924Z,4.45
2022-08-08T05:20:11.495Z,5.00
2022-08-08T05:22:12.492Z,9.20
2022-08-08T05:24:48.782Z,5.67
2022-08-08T05:27:22.967Z,5.72
2022-08-08T05:29:58.103Z,5.22
2022-08-08T05:32:36.605Z,5.15
2022-08-08T05:35:10.344Z,4.72
2022-08-08T05:37:53.068Z,5.58
2022-08-08T05:40:28.269Z,4.45
2022-08-08T05:43:38.271Z,4.28
2022-08-08T05:45:53.125Z,5.25
2022-08-08T05:48:28.635Z,4.55
2022-08-08T05:50:58.942Z,5.45
2022-08-08T05:56:11.337Z,6.58
2022-08-08T05:58:37.457Z,6.22
2022-08-08T06:01:14.472Z,6.58
2022-08-08T06:03:53.615Z,6.75
2022-08-08T06:06:32.498Z,6.95
2022-08-08T06:09:41.533Z,6.95
2022-08-08T06:12:06.468Z,6.65
2022-08-08T06:14:40.729Z,7.08
2022-08-08T06:17:19.443Z,7.40
2022-08-08T06:19:51.453Z,6.47
2022-08-08T06:22:32.700Z,6.53
2022-08-08T06:25:00.590Z,18.20
2022-08-08T06:27:55.440Z,21.90
2022-08-08T06:30:29.750Z,17.15
2022-08-08T06:33:03.145Z,12.23
2022-08-08T06:36:04.676Z,9.60
2022-08-08T06:38:14.616Z,8.18
2022-08-08T06:40:48.769Z,7.47
2022-08-08T06:43:28.336Z,9.85
2022-08-08T06:45:59.491Z,7.22
2022-08-08T06:48:33.438Z,6.97
2022-08-08T06:51:08.653Z,7.70
2022-08-08T06:53:50.530Z,6.53
2022-08-08T06:56:17.395Z,14.53
2022-08-08T06:58:50.308Z,12.90
2022-08-08T07:02:16.998Z,10.32
2022-08-08T07:04:39.968Z,7.80
2022-08-08T07:06:46.785Z,6.15
2022-08-08T07:09:21.897Z,5.83
2022-08-08T07:11:59.832Z,5.58
2022-08-08T07:14:44.073Z,5.28
2022-08-08T07:17:40.265Z,5.22
2022-08-08T07:20:11.268Z,5.15
2022-08-08T07:23:26.403Z,5.25
2022-08-08T07:26:03.845Z,5.20
2022-08-08T07:28:38.910Z,4.58
2022-08-08T07:31:13.357Z,5.15
2022-08-08T07:33:53.673Z,4.80
2022-08-08T07:36:28.372Z,4.80
2022-08-08T07:39:04.210Z,4.33
2022-08-08T07:42:03.460Z,5.05
2022-08-08T07:44:38.087Z,4.83
2022-08-08T07:46:50.795Z,4.90
2022-08-08T07:49:25.378Z,4.37
2022-08-08T07:51:59.834Z,4.22
2022-08-08T07:54:55.753Z,4.50
2022-08-08T07:58:00.886Z,4.72
2022-08-08T08:00:50.538Z,4.20
2022-08-08T08:03:41.528Z,3.25
2022-08-08T08:06:16.431Z,4.00
2022-08-08T08:09:03.996Z,4.85
2022-08-08T08:11:51.682Z,4.67
2022-08-08T08:14:20.905Z,4.78
2022-08-08T08:16:54.087Z,4.80
2022-08-08T08:19:45.494Z,4.62
2022-08-08T08:24:53.154Z,4.47
2022-08-08T08:27:30.141Z,4.30
2022-08-08T08:30:02.900Z,4.08
2022-08-08T08:32:49.377Z,5.72
2022-08-08T08:35:13.313Z,4.65
2022-08-08T08:38:14.578Z,4.58
2022-08-08T08:40:27.621Z,4.40
2022-08-08T08:43:01.135Z,4.67
2022-08-08T08:45:35.343Z,5.60
2022-08-08T08:48:09.479Z,5.28
2022-08-08T08:50:44.208Z,4.60
2022-08-08T08:53:28.240Z,4.53
2022-08-08T08:55:53.012Z,8.20
2022-08-08T08:58:31.616Z,12.75
2022-08-08T09:01:08.915Z,7.95
2022-08-08T09:03:47.282Z,6.87
2022-08-08T09:06:33.991Z,7.47
2022-08-08T09:09:19.221Z,7.55
2022-08-08T09:12:02.281Z,6.78
2022-08-08T09:14:25.996Z,6.85
2022-08-08T09:17:01.612Z,7.20
2022-08-08T09:22:01.797Z,7.28
2022-08-08T09:22:09.050Z,8.35
2022-08-08T09:24:42.715Z,11.78
2022-08-08T09:27:20.802Z,16.80
2022-08-08T09:32:50.435Z,25.30
2022-08-08T09:35:20.906Z,15.72
2022-08-08T09:38:18.174Z,16.95
2022-08-08T09:40:57.534Z,11.55
2022-08-08T09:43:41.214Z,11.85
2022-08-08T09:46:10.944Z,9.65
2022-08-08T09:48:46.710Z,8.65
2022-08-08T09:51:20.948Z,9.23
2022-08-08T09:54:08.488Z,8.05
2022-08-08T09:56:37.190Z,16.17
2022-08-08T09:59:50.226Z,12.15
2022-08-08T10:01:58.969Z,14.98
2022-08-08T10:04:38.264Z,12.05
2022-08-08T10:07:00.449Z,13.78
2022-08-08T10:09:35.843Z,14.15
2022-08-08T10:12:26.574Z,14.63
2022-08-08T10:14:46.002Z,8.40
2022-08-08T10:17:57.282Z,8.30
2022-08-08T10:20:00.796Z,7.83
2022-08-08T10:22:33.812Z,6.47
2022-08-08T10:25:15.751Z,7.33
2022-08-08T10:27:44.872Z,6.80
2022-08-08T10:30:56.860Z,6.80
2022-08-08T10:33:00.833Z,6.55
2022-08-08T10:36:09.376Z,9.03
2022-08-08T10:38:10.745Z,7.40
2022-08-08T10:40:45.496Z,14.30
2022-08-08T10:43:18.109Z,7.12
2022-08-08T10:45:56.737Z,6.85
2022-08-08T10:48:56.537Z,7.28
2022-08-08T10:51:14.421Z,6.72
2022-08-08T10:53:57.103Z,7.00
2022-08-08T10:56:32.189Z,7.40
2022-08-08T10:59:12.187Z,6.95
2022-08-08T11:01:54.696Z,6.75
2022-08-08T11:04:29.421Z,6.30
2022-08-08T11:07:01.096Z,8.65
2022-08-08T11:09:35.332Z,6.72
2022-08-08T11:12:13.590Z,6.95
2022-08-08T11:14:58.622Z,6.90
2022-08-08T11:18:00.637Z,6.80
2022-08-08T11:20:12.815Z,6.58
2022-08-08T11:22:46.582Z,6.65
2022-08-08T11:25:22.173Z,6.20
2022-08-08T11:27:58.072Z,6.85
2022-08-08T11:33:12.254Z,6.50
2022-08-08T11:35:42.602Z,7.08
2022-08-08T11:38:35.329Z,7.05
2022-08-08T11:40:52.566Z,7.45
2022-08-08T11:43:39.221Z,7.25
2022-08-08T11:46:18.069Z,7.47
2022-08-08T11:48:47.012Z,7.03
2022-08-08T11:51:39.737Z,6.70
2022-08-08T11:54:31.143Z,7.28
2022-08-08T11:56:47.052Z,6.90
2022-08-08T12:00:00.974Z,6.80
2022-08-08T12:02:31.287Z,7.30
2022-08-08T12:04:42.010Z,7.45
2022-08-08T12:07:17.280Z,7.78
2022-08-08T12:09:59.364Z,7.55
2022-08-08T12:12:28.520Z,7.30
2022-08-08T12:15:03.590Z,7.58
2022-08-08T12:17:44.347Z,8.10
2022-08-08T12:20:17.044Z,6.70
2022-08-08T12:22:53.166Z,6.87
2022-08-08T12:25:31.122Z,6.90
2022-08-08T12:28:17.123Z,7.90
2022-08-08T12:30:50.152Z,6.75
2022-08-08T12:33:37.051Z,6.85
2022-08-08T12:36:13.522Z,6.62
2022-08-08T12:38:55.417Z,5.95
2022-08-08T12:41:34.932Z,6.22
2022-08-08T12:44:13.679Z,6.12
2022-08-08T12:47:01.203Z,5.67
2022-08-08T12:49:45.047Z,5.55
2022-08-08T12:52:14.188Z,6.42
2022-08-08T12:54:47.501Z,6.50
2022-08-08T12:57:25.817Z,6.35
2022-08-08T13:00:05.010Z,7.00
2022-08-08T13:02:42.077Z,6.40
2022-08-08T13:05:26.665Z,6.33
2022-08-08T13:08:02.146Z,9.05
2022-08-08T13:10:55.388Z,8.50
2022-08-08T13:13:37.865Z,6.50
2022-08-08T13:16:25.187Z,6.22
2022-08-08T13:19:07.901Z,5.80
2022-08-08T13:22:06.988Z,5.60
2022-08-08T13:24:48.072Z,5.30
2022-08-08T13:27:35.698Z,4.33
2022-08-08T13:30:04.869Z,4.90
2022-08-08T13:32:58.850Z,4.58
2022-08-08T13:35:40.433Z,4.45
2022-08-08T13:38:08.144Z,4.37
2022-08-08T13:40:44.879Z,4.85
2022-08-08T13:43:20.923Z,4.67
2022-08-08T13:45:53.507Z,4.22
2022-08-08T13:48:26.661Z,4.58
2022-08-08T13:51:33.990Z,3.77
2022-08-08T13:53:36.232Z,4.12
2022-08-08T13:56:12.346Z,4.58
2022-08-08T13:58:57.472Z,3.90
2022-08-08T14:01:52.651Z,4.60
2022-08-08T14:04:08.507Z,4.83
2022-08-08T14:06:47.305Z,4.40
2022-08-08T14:09:30.128Z,4.05
2022-08-08T14:12:01.398Z,4.33
2022-08-08T14:14:44.269Z,4.65
2022-08-08T14:17:36.268Z,4.62
2022-08-08T14:19:58.179Z,5.00
2022-08-08T14:22:28.376Z,4.87
2022-08-08T14:25:07.643Z,4.37
2022-08-08T14:27:44.316Z,4.85
2022-08-08T14:30:19.499Z,4.12
2022-08-08T14:32:53.948Z,4.10
2022-08-08T14:35:35.395Z,4.10
2022-08-08T14:38:51.940Z,4.60
2022-08-08T14:40:45.538Z,4.05
2022-08-08T14:44:02.713Z,4.85
2022-08-08T14:46:09.497Z,4.37
2022-08-08T14:48:56.897Z,4.17
2022-08-08T14:51:23.432Z,4.35
2022-08-08T14:53:59.332Z,4.45
2022-08-08T14:56:32.334Z,4.45
2022-08-08T14:59:22.626Z,3.80
2022-08-08T15:04:14.615Z,3.83
2022-08-08T15:06:51.194Z,4.37
2022-08-08T15:09:24.292Z,4.10
2022-08-08T15:11:58.100Z,4.65
2022-08-08T15:14:31.599Z,4.00
2022-08-08T15:17:05.504Z,5.13
2022-08-08T15:19:40.532Z,4.60
2022-08-08T15:22:17.887Z,4.60
2022-08-08T15:24:50.793Z,6.65
2022-08-08T15:28:04.515Z,8.93
2022-08-08T15:29:57.384Z,5.65
2022-08-08T15:32:31.922Z,7.33
2022-08-08T15:35:05.924Z,6.17
2022-08-08T15:37:41.199Z,7.12
2022-08-08T15:40:15.175Z,3.87
2022-08-08T15:42:49.537Z,4.65
2022-08-08T15:45:22.792Z,4.40
2022-08-08T15:48:04.225Z,11.75
2022-08-08T15:50:32.532Z,7.72
2022-08-08T15:53:04.942Z,7.97
2022-08-08T15:55:40.201Z,7.28
2022-08-08T15:58:13.230Z,20.03
2022-08-08T16:00:50.258Z,15.65
2022-08-08T16:03:19.934Z,4.15
2022-08-08T16:06:01.878Z,4.75
2022-08-08T16:08:27.954Z,5.55
2022-08-08T16:13:07.229Z,3.40
2022-08-08T16:16:16.505Z,3.87
2022-08-08T16:18:43.745Z,3.90
2022-08-08T16:21:26.228Z,4.05
2022-08-08T16:26:34.719Z,3.55
2022-08-08T16:29:02.128Z,3.55
2022-08-08T16:31:37.242Z,3.70
2022-08-08T16:34:11.287Z,3.33
2022-08-08T16:36:45.752Z,4.22
2022-08-08T16:39:59.374Z,3.95
2022-08-08T16:42:00.930Z,4.20
2022-08-08T16:47:40.127Z,3.77
2022-08-08T16:50:12.697Z,5.75
2022-08-08T16:55:14.034Z,13.53
2022-08-08T16:55:49.441Z,8.55
2022-08-08T16:58:15.551Z,10.82
2022-08-08T17:00:27.585Z,5.00
2022-08-08T17:05:44.798Z,8.08
2022-08-08T17:08:09.506Z,4.90
2022-08-08T17:10:58.041Z,5.60
2022-08-08T17:15:52.763Z,4.75
2022-08-08T17:18:25.414Z,5.12
2022-08-08T17:20:58.499Z,5.58
2022-08-08T17:23:58.060Z,5.83
2022-08-08T17:26:06.775Z,5.45
2022-08-08T17:28:41.180Z,5.97
2022-08-08T17:31:44.388Z,5.58
2022-08-08T17:34:49.420Z,6.47
2022-08-08T17:36:31.370Z,6.15
2022-08-08T17:39:04.924Z,5.62
2022-08-08T17:41:39.230Z,6.00
2022-08-08T17:46:51.124Z,5.65
2022-08-08T17:49:28.748Z,6.42
2022-08-08T17:51:59.980Z,6.22
2022-08-08T17:54:32.879Z,6.47
2022-08-08T17:57:05.448Z,5.55
2022-08-08T17:59:45.801Z,6.97
2022-08-08T18:02:18.645Z,5.05
2022-08-08T18:04:50.613Z,8.50
2022-08-08T18:08:02.608Z,6.40
2022-08-08T18:09:57.287Z,6.92
2022-08-08T18:12:31.205Z,8.03
2022-08-08T18:15:03.789Z,8.15
2022-08-08T18:18:05.299Z,9.30
2022-08-08T18:20:44.164Z,6.90
2022-08-08T18:22:51.519Z,8.08
2022-08-08T18:25:24.268Z,5.92
2022-08-08T18:27:57.173Z,9.58
2022-08-08T18:30:29.944Z,7.75
2022-08-08T18:33:04.153Z,7.37
2022-08-08T18:35:48.346Z,6.00
2022-08-08T18:38:17.398Z,6.08
2022-08-08T18:40:46.136Z,5.95
2022-08-08T18:43:18.613Z,6.42
2022-08-08T18:46:54.802Z,6.25
2022-08-08T18:51:01.575Z,6.65
2022-08-08T18:53:51.010Z,5.70
2022-08-08T18:56:10.360Z,6.42
2022-08-08T18:58:43.078Z,6.42
2022-08-08T19:02:24.967Z,6.70
2022-08-08T19:04:10.247Z,7.10
2022-08-08T19:06:25.839Z,6.35
2022-08-08T19:08:58.316Z,6.95
2022-08-08T19:11:32.605Z,6.60
2022-08-08T19:16:42.056Z,6.17
2022-08-08T19:19:15.473Z,6.90
2022-08-08T19:21:50.156Z,6.53
2022-08-08T19:24:39.116Z,6.70
2022-08-08T19:26:58.791Z,7.12
2022-08-08T19:29:31.251Z,6.70
2022-08-08T19:32:12.621Z,5.78
2022-08-08T19:34:42.170Z,6.70
2022-08-08T19:37:16.562Z,7.03
2022-08-08T19:39:51.083Z,6.75
2022-08-08T19:42:22.890Z,6.40
2022-08-08T19:45:05.248Z,5.70
2022-08-08T19:50:05.954Z,7.28
2022-08-08T19:52:39.226Z,6.65
2022-08-08T19:55:15.097Z,6.53
2022-08-08T19:57:48.751Z,6.47
2022-08-08T20:00:30.082Z,9.40
2022-08-08T20:02:57.159Z,7.33
2022-08-08T20:06:12.902Z,7.75
2022-08-08T20:08:28.949Z,7.15
2022-08-08T20:10:43.221Z,6.90
2022-08-08T20:14:12.149Z,6.63
2022-08-08T20:19:42.327Z,7.33
2022-08-08T20:23:41.897Z,7.12
2022-08-08T20:26:33.970Z,8.35
2022-08-08T20:29:08.546Z,7.83
2022-08-08T20:32:07.134Z,8.65
2022-08-08T20:34:28.889Z,10.05
2022-08-08T20:36:51.368Z,8.63
2022-08-08T20:39:23.995Z,8.13
2022-08-08T20:41:58.061Z,8.70
2022-08-08T20:44:30.831Z,8.45
2022-08-08T20:47:04.614Z,7.00
2022-08-08T20:49:39.881Z,6.67
2022-08-08T20:52:13.744Z,7.80
2022-08-08T20:54:48.565Z,8.05
2022-08-08T20:57:21.586Z,7.55
2022-08-08T20:59:54.747Z,8.98
2022-08-08T21:02:29.219Z,7.45
2022-08-08T21:08:07.884Z,7.58
2022-08-08T21:10:12.489Z,8.03
2022-08-08T21:12:52.968Z,8.55
2022-08-08T21:16:05.005Z,9.23
2022-08-08T21:17:56.734Z,8.10
2022-08-08T21:20:34.097Z,8.70
2022-08-08T21:23:08.914Z,9.58
2022-08-08T21:25:39.371Z,8.53
2022-08-08T21:28:15.991Z,7.53
2022-08-08T21:30:51.941Z,6.62
2022-08-08T21:33:25.224Z,7.25
2022-08-08T21:36:16.192Z,7.53
2022-08-08T21:38:33.301Z,7.70
2022-08-08T21:41:06.059Z,7.20
2022-08-08T21:43:39.548Z,6.75
2022-08-08T21:48:08.060Z,7.17
2022-08-08T21:48:51.324Z,6.85
2022-08-08T21:54:18.885Z,7.08
2022-08-08T21:54:33.388Z,6.72
2022-08-08T21:56:42.214Z,6.58
2022-08-08T21:59:09.747Z,6.83
2022-08-08T22:04:13.719Z,6.87
2022-08-08T22:06:48.087Z,8.58
2022-08-08T22:09:26.923Z,7.30
2022-08-08T22:12:08.904Z,6.55
2022-08-08T22:14:31.536Z,6.67
2022-08-08T22:17:04.890Z,6.10
2022-08-08T22:20:12.907Z,6.50
2022-08-08T22:22:13.176Z,5.65
2022-08-08T22:24:46.220Z,5.90
2022-08-08T22:27:38.476Z,5.90
2022-08-08T22:29:58.673Z,10.88
2022-08-08T22:32:30.511Z,8.48
2022-08-08T22:35:03.926Z,6.83
2022-08-08T22:37:53.300Z,5.35
2022-08-08T22:40:16.829Z,4.62
2022-08-08T22:42:49.376Z,4.97
2022-08-08T22:45:23.654Z,4.30
2022-08-08T22:47:56.194Z,4.37
2022-08-08T22:50:29.362Z,5.78
2022-08-08T22:54:29.405Z,4.35
2022-08-08T22:55:59.688Z,4.00
2022-08-08T22:58:19.054Z,5.05
2022-08-08T23:00:54.460Z,4.25
2022-08-08T23:03:34.445Z,4.80
2022-08-08T23:06:01.868Z,4.25
2022-08-08T23:08:35.765Z,6.78
2022-08-08T23:11:13.250Z,15.23
2022-08-08T23:13:53.817Z,12.90
2022-08-08T23:16:41.266Z,5.67
2022-08-08T23:19:01.588Z,5.10
2022-08-08T23:21:34.905Z,4.67
2022-08-08T23:24:09.246Z,4.12
2022-08-08T23:26:42.048Z,5.00
2022-08-08T23:29:16.289Z,4.37
2022-08-08T23:31:49.789Z,4.33
2022-08-08T23:34:23.531Z,3.40
2022-08-08T23:36:58.988Z,10.35
2022-08-08T23:39:42.263Z,5.35
2022-08-08T23:42:10.965Z,6.65
2022-08-08T23:44:43.542Z,8.15
2022-08-08T23:50:02.945Z,4.80
2022-08-08T23:52:28.177Z,4.90
2022-08-08T23:55:19.403Z,4.58
2022-08-08T23:57:39.334Z,5.85
